createdAt,value
2018-06-03T00:02:10.910Z,3.93
2018-06-03T00:04:41.645Z,4.00
2018-06-03T00:07:12.494Z,3.50
2018-06-03T00:09:45.001Z,3.00
2018-06-03T00:12:16.028Z,3.73
2018-06-03T00:14:46.882Z,3.77
2018-06-03T00:17:17.494Z,4.30
2018-06-03T00:19:49.091Z,3.83
2018-06-03T00:22:24.814Z,3.07
2018-06-03T00:24:56.247Z,3.90
2018-06-03T00:27:27.482Z,3.93
2018-06-03T00:29:58.386Z,3.73
2018-06-03T00:32:29.361Z,4.20
2018-06-03T00:37:37.897Z,3.17
2018-06-03T00:40:09.735Z,3.80
2018-06-03T00:42:40.649Z,3.33
2018-06-03T00:45:11.690Z,3.30
2018-06-03T00:47:43.747Z,3.43
2018-06-03T00:50:17.379Z,3.57
2018-06-03T00:52:48.225Z,4.73
2018-06-03T00:55:19.925Z,3.93
2018-06-03T00:57:52.049Z,3.37
2018-06-03T01:00:23.070Z,3.00
2018-06-03T01:02:54.328Z,3.23
2018-06-03T01:05:25.391Z,3.30
2018-06-03T01:07:56.470Z,3.13
2018-06-03T01:10:28.260Z,3.17
2018-06-03T01:12:59.345Z,3.30
2018-06-03T01:15:30.612Z,2.83
2018-06-03T01:18:01.610Z,4.00
2018-06-03T01:20:32.519Z,3.10
2018-06-03T01:23:03.636Z,3.30
2018-06-03T01:25:35.577Z,3.27
2018-06-03T01:28:06.630Z,2.80
2018-06-03T01:30:37.845Z,3.00
2018-06-03T01:33:08.852Z,2.87
2018-06-03T01:35:40.413Z,3.00
2018-06-03T01:38:11.445Z,3.50
2018-06-03T01:40:43.097Z,3.37
2018-06-03T01:43:14.204Z,3.53
2018-06-03T01:45:46.213Z,3.43
2018-06-03T01:48:17.199Z,2.90
2018-06-03T01:50:48.257Z,2.70
2018-06-03T01:53:19.311Z,3.07
2018-06-03T01:55:50.370Z,2.90
2018-06-03T01:58:22.620Z,2.83
2018-06-03T02:00:59.609Z,2.90
2018-06-03T02:03:30.429Z,2.73
2018-06-03T02:06:01.447Z,4.00
2018-06-03T02:08:32.423Z,3.57
2018-06-03T02:11:03.440Z,2.70
2018-06-03T02:13:34.326Z,3.40
2018-06-03T02:16:07.091Z,2.70
2018-06-03T02:18:38.184Z,2.73
2018-06-03T02:21:09.115Z,3.00
2018-06-03T02:23:40.365Z,3.67
2018-06-03T02:26:11.304Z,2.60
2018-06-03T02:28:42.409Z,2.97
2018-06-03T02:31:13.500Z,3.63
2018-06-03T02:33:44.491Z,2.20
2018-06-03T02:36:15.488Z,3.40
2018-06-03T02:38:46.290Z,2.80
2018-06-03T02:41:18.572Z,2.90
2018-06-03T02:43:50.606Z,3.10
2018-06-03T02:46:21.489Z,3.80
2018-06-03T02:48:52.738Z,2.60
2018-06-03T02:51:25.540Z,3.23
2018-06-03T02:53:56.508Z,3.43
2018-06-03T02:56:27.453Z,3.20
2018-06-03T02:58:58.459Z,3.70
2018-06-03T03:01:29.626Z,3.50
2018-06-03T03:04:02.694Z,3.37
2018-06-03T03:06:36.100Z,3.10
2018-06-03T03:09:07.651Z,3.13
2018-06-03T03:11:38.985Z,2.77
2018-06-03T03:14:10.084Z,2.40
2018-06-03T03:16:42.112Z,2.43
2018-06-03T03:19:13.069Z,2.80
2018-06-03T03:21:44.219Z,2.60
2018-06-03T03:24:15.907Z,2.40
2018-06-03T03:26:46.860Z,2.20
2018-06-03T03:29:17.776Z,2.67
2018-06-03T03:31:49.572Z,2.10
2018-06-03T03:34:20.561Z,2.17
2018-06-03T03:36:52.481Z,2.27
2018-06-03T03:39:23.524Z,2.73
2018-06-03T03:41:54.630Z,2.70
2018-06-03T03:44:25.785Z,2.90
2018-06-03T03:49:32.736Z,2.70
2018-06-03T03:52:03.899Z,2.87
2018-06-03T03:54:34.887Z,3.30
2018-06-03T03:57:05.900Z,2.83
2018-06-03T03:59:37.893Z,2.70
2018-06-03T04:02:08.884Z,3.30
2018-06-03T04:04:41.920Z,3.33
2018-06-03T04:07:13.044Z,3.07
2018-06-03T04:09:45.903Z,2.73
2018-06-03T04:12:16.842Z,2.90
2018-06-03T04:14:47.860Z,2.90
2018-06-03T04:17:18.907Z,3.30
2018-06-03T04:22:26.099Z,3.13
2018-06-03T04:24:56.958Z,2.97
2018-06-03T04:30:04.394Z,3.03
2018-06-03T04:32:35.503Z,3.10
2018-06-03T04:35:06.856Z,2.93
2018-06-03T04:37:38.154Z,2.70
2018-06-03T04:40:09.474Z,3.10
2018-06-03T04:42:43.599Z,3.03
2018-06-03T04:45:17.945Z,3.43
2018-06-03T04:47:49.179Z,2.90
2018-06-03T04:50:20.893Z,3.37
2018-06-03T04:52:56.591Z,3.23
2018-06-03T04:55:27.567Z,3.00
2018-06-03T04:58:00.442Z,3.30
2018-06-03T05:00:34.194Z,3.17
2018-06-03T05:03:05.493Z,3.07
2018-06-03T05:05:39.698Z,3.63
2018-06-03T05:08:10.933Z,3.43
2018-06-03T05:10:42.748Z,3.20
2018-06-03T05:13:14.101Z,3.23
2018-06-03T05:15:44.926Z,3.40
2018-06-03T05:18:15.691Z,3.77
2018-06-03T05:20:46.281Z,2.97
2018-06-03T05:23:17.750Z,3.43
2018-06-03T05:28:24.749Z,3.43
2018-06-03T05:30:55.372Z,3.20
2018-06-03T05:33:25.984Z,3.47
2018-06-03T05:35:56.580Z,3.73
2018-06-03T05:38:27.583Z,3.27
2018-06-03T05:40:58.016Z,2.73
2018-06-03T05:43:30.011Z,3.10
2018-06-03T05:46:00.470Z,3.33
2018-06-03T05:48:32.733Z,2.70
2018-06-03T05:51:03.622Z,3.27
2018-06-03T05:53:34.016Z,2.90
2018-06-03T05:56:04.456Z,3.10
2018-06-03T05:58:34.989Z,3.67
2018-06-03T06:01:05.567Z,3.10
2018-06-03T06:03:36.841Z,3.37
2018-06-03T06:06:09.880Z,3.00
2018-06-03T06:08:41.120Z,3.40
2018-06-03T06:11:11.571Z,3.40
2018-06-03T06:13:42.028Z,3.03
2018-06-03T06:16:12.540Z,2.97
2018-06-03T06:18:43.279Z,3.33
2018-06-03T06:21:14.619Z,3.40
2018-06-03T06:23:46.243Z,3.23
2018-06-03T06:26:19.720Z,3.10
2018-06-03T06:28:50.185Z,3.00
2018-06-03T06:31:20.714Z,3.50
2018-06-03T06:33:51.255Z,3.60
2018-06-03T06:36:22.387Z,3.73
2018-06-03T06:38:53.358Z,3.17
2018-06-03T06:41:26.900Z,3.10
2018-06-03T06:43:57.671Z,3.80
2018-06-03T06:46:28.803Z,2.97
2018-06-03T06:48:59.266Z,3.50
2018-06-03T06:51:29.871Z,2.63
2018-06-03T06:54:00.414Z,3.53
2018-06-03T06:56:30.965Z,3.13
2018-06-03T06:59:01.477Z,3.27
2018-06-03T07:01:32.744Z,2.80
2018-06-03T07:04:04.519Z,3.37
2018-06-03T07:06:37.423Z,3.37
2018-06-03T07:09:08.953Z,3.50
2018-06-03T07:11:39.352Z,3.47
2018-06-03T07:14:09.871Z,3.37
2018-06-03T07:16:40.326Z,3.07
2018-06-03T07:19:10.777Z,2.93
2018-06-03T07:21:41.367Z,3.00
2018-06-03T07:24:11.904Z,3.27
2018-06-03T07:26:43.556Z,3.77
2018-06-03T07:29:14.067Z,3.03
2018-06-03T07:31:44.562Z,2.80
2018-06-03T07:34:15.821Z,3.53
2018-06-03T07:36:46.313Z,3.30
2018-06-03T07:39:19.365Z,3.57
2018-06-03T07:41:51.040Z,3.47
2018-06-03T07:44:23.332Z,3.00
2018-06-03T07:47:00.414Z,3.30
2018-06-03T07:49:30.881Z,3.70
2018-06-03T07:52:02.367Z,3.50
2018-06-03T07:54:32.917Z,3.77
2018-06-03T07:57:03.866Z,3.40
2018-06-03T07:59:34.688Z,3.50
2018-06-03T08:02:07.522Z,4.03
2018-06-03T08:04:38.229Z,3.07
2018-06-03T08:07:11.091Z,3.93
2018-06-03T08:09:42.879Z,3.47
2018-06-03T08:12:15.339Z,3.20
2018-06-03T08:14:52.550Z,3.67
2018-06-03T08:17:25.702Z,3.60
2018-06-03T08:19:56.466Z,3.30
2018-06-03T08:22:27.300Z,3.50
2018-06-03T08:24:58.845Z,2.97
2018-06-03T08:27:30.791Z,3.23
2018-06-03T08:30:01.535Z,3.33
2018-06-03T08:32:32.501Z,2.93
2018-06-03T08:35:05.502Z,3.27
2018-06-03T08:37:37.418Z,2.80
2018-06-03T08:40:09.538Z,2.60
2018-06-03T08:42:40.871Z,2.60
2018-06-03T08:45:11.339Z,2.63
2018-06-03T08:47:43.744Z,2.83
2018-06-03T08:50:16.838Z,3.20
2018-06-03T08:52:47.889Z,2.83
2018-06-03T08:55:18.332Z,3.43
2018-06-03T08:57:49.005Z,3.50
2018-06-03T09:00:19.613Z,3.40
2018-06-03T09:02:51.065Z,2.77
2018-06-03T09:05:21.602Z,2.73
2018-06-03T09:07:52.925Z,3.87
2018-06-03T09:10:23.418Z,3.10
2018-06-03T09:12:55.265Z,2.63
2018-06-03T09:15:26.028Z,3.40
2018-06-03T09:17:57.743Z,3.33
2018-06-03T09:20:28.716Z,3.30
2018-06-03T09:23:00.761Z,3.40
2018-06-03T09:25:33.208Z,3.13
2018-06-03T09:28:03.926Z,4.00
2018-06-03T09:30:35.448Z,3.03
2018-06-03T09:33:07.513Z,2.70
2018-06-03T09:35:39.055Z,3.00
2018-06-03T09:38:11.846Z,3.20
2018-06-03T09:40:43.511Z,2.90
2018-06-03T09:43:14.647Z,2.87
2018-06-03T09:45:45.697Z,2.60
2018-06-03T09:48:17.974Z,2.93
2018-06-03T09:50:49.042Z,2.97
2018-06-03T09:53:20.442Z,3.27
2018-06-03T09:55:51.584Z,3.30
2018-06-03T10:00:59.528Z,3.00
2018-06-03T10:03:31.238Z,3.40
2018-06-03T10:06:03.206Z,3.13
2018-06-03T10:08:34.351Z,3.20
2018-06-03T10:11:06.392Z,2.83
2018-06-03T10:13:37.414Z,3.40
2018-06-03T10:16:09.681Z,3.87
2018-06-03T10:18:41.497Z,3.80
2018-06-03T10:21:13.799Z,3.33
2018-06-03T10:23:44.958Z,3.83
2018-06-03T10:26:16.532Z,3.40
2018-06-03T10:28:47.504Z,3.73
2018-06-03T10:31:28.253Z,3.60
2018-06-03T10:33:59.176Z,3.60
2018-06-03T10:36:33.128Z,3.87
2018-06-03T10:39:04.126Z,4.47
2018-06-03T10:41:36.108Z,3.77
2018-06-03T10:44:08.221Z,3.30
2018-06-03T10:46:39.310Z,4.37
2018-06-03T10:49:10.210Z,3.50
2018-06-03T10:54:17.929Z,4.20
2018-06-03T10:59:25.832Z,3.70
2018-06-03T11:01:56.973Z,3.67
2018-06-03T11:04:30.096Z,3.80
2018-06-03T11:07:02.119Z,3.47
2018-06-03T11:09:33.242Z,3.63
2018-06-03T11:12:04.554Z,3.50
2018-06-03T11:14:36.896Z,3.80
2018-06-03T11:17:08.727Z,3.67
2018-06-03T11:19:42.387Z,3.80
2018-06-03T11:22:13.261Z,3.17
2018-06-03T11:24:45.341Z,3.43
2018-06-03T11:27:16.635Z,3.77
2018-06-03T11:29:48.590Z,3.57
2018-06-03T11:32:20.367Z,4.07
2018-06-03T11:34:52.725Z,3.90
2018-06-03T11:37:24.745Z,3.40
2018-06-03T11:40:07.680Z,3.93
2018-06-03T11:42:39.498Z,3.33
2018-06-03T11:45:11.439Z,3.87
2018-06-03T11:47:43.592Z,3.30
2018-06-03T11:50:28.778Z,3.60
2018-06-03T11:53:00.256Z,3.30
2018-06-03T11:55:31.503Z,3.70
2018-06-03T11:59:10.746Z,3.40
2018-06-03T12:04:18.940Z,3.87
2018-06-03T12:06:52.719Z,3.97
2018-06-03T12:09:28.866Z,3.57
2018-06-03T12:12:18.217Z,3.53
2018-06-03T12:14:55.072Z,3.60
2018-06-03T12:17:28.695Z,3.40
2018-06-03T12:20:01.923Z,3.30
2018-06-03T12:22:33.900Z,2.73
2018-06-03T12:25:05.486Z,3.30
2018-06-03T12:27:40.010Z,3.30
2018-06-03T12:30:13.408Z,2.90
2018-06-03T12:32:55.574Z,3.23
2018-06-03T12:35:32.041Z,3.00
2018-06-03T12:38:22.054Z,4.10
2018-06-03T12:40:57.712Z,2.80
2018-06-03T12:43:30.221Z,3.50
2018-06-03T12:46:02.109Z,3.13
2018-06-03T12:48:35.576Z,2.43
2018-06-03T12:51:10.016Z,2.37
2018-06-03T12:53:42.398Z,2.40
2018-06-03T12:56:13.945Z,2.70
2018-06-03T12:58:47.197Z,2.63
2018-06-03T13:01:19.936Z,2.23
2018-06-03T13:03:51.244Z,2.60
2018-06-03T13:06:22.263Z,2.63
2018-06-03T13:08:54.706Z,2.53
2018-06-03T13:11:29.061Z,2.70
2018-06-03T13:14:00.601Z,2.70
2018-06-03T13:16:36.279Z,2.50
2018-06-03T13:19:10.293Z,2.70
2018-06-03T13:21:45.074Z,2.60
2018-06-03T13:24:20.004Z,3.50
2018-06-03T13:26:51.990Z,3.47
2018-06-03T13:29:24.000Z,2.00
2018-06-03T13:31:57.917Z,9.60
2018-06-03T13:34:32.682Z,5.03
2018-06-03T13:37:06.384Z,3.30
2018-06-03T13:39:38.154Z,6.10
2018-06-03T13:42:09.000Z,4.93
2018-06-03T13:44:41.585Z,2.63
2018-06-03T13:47:12.514Z,2.10
2018-06-03T13:49:44.315Z,2.33
2018-06-03T13:52:15.770Z,2.33
2018-06-03T13:54:49.608Z,2.73
2018-06-03T13:57:21.714Z,2.57
2018-06-03T13:59:55.958Z,2.17
2018-06-03T14:02:27.394Z,2.10
2018-06-03T14:04:59.197Z,2.17
2018-06-03T14:07:30.137Z,2.60
2018-06-03T14:10:01.834Z,2.30
2018-06-03T14:12:33.671Z,2.83
2018-06-03T14:15:05.568Z,2.43
2018-06-03T14:17:37.005Z,1.87
2018-06-03T14:20:09.382Z,2.60
2018-06-03T14:22:40.163Z,2.60
2018-06-03T14:25:12.248Z,2.20
2018-06-03T14:27:43.450Z,2.40
2018-06-03T14:30:14.905Z,2.43
2018-06-03T14:32:45.673Z,2.27
2018-06-03T14:35:19.153Z,2.07
2018-06-03T14:37:50.068Z,2.97
2018-06-03T14:40:22.836Z,2.50
2018-06-03T14:42:53.594Z,2.30
2018-06-03T14:45:25.252Z,2.53
2018-06-03T14:47:56.790Z,2.23
2018-06-03T14:50:28.302Z,2.30
2018-06-03T14:52:59.172Z,2.00
2018-06-03T14:55:29.900Z,2.30
2018-06-03T14:58:00.926Z,2.07
2018-06-03T15:03:08.232Z,2.10
2018-06-03T15:05:38.914Z,2.80
2018-06-03T15:08:15.828Z,2.87
2018-06-03T15:10:47.221Z,3.30
2018-06-03T15:13:18.124Z,2.23
2018-06-03T15:15:48.989Z,2.13
2018-06-03T15:18:19.997Z,2.10
2018-06-03T15:20:50.879Z,2.37
2018-06-03T15:25:58.456Z,2.20
2018-06-03T15:28:29.246Z,2.73
2018-06-03T15:31:00.162Z,2.70
2018-06-03T15:33:30.930Z,2.20
2018-06-03T15:36:04.303Z,2.93
2018-06-03T15:38:35.937Z,2.40
2018-06-03T15:41:07.192Z,2.00
2018-06-03T15:43:38.147Z,2.33
2018-06-03T15:46:09.344Z,2.90
2018-06-03T15:48:39.838Z,2.00
2018-06-03T15:53:46.259Z,2.10
2018-06-03T15:56:16.868Z,3.00
2018-06-03T15:58:48.567Z,2.80
2018-06-03T16:01:19.349Z,2.57
2018-06-03T16:06:28.332Z,2.43
2018-06-03T16:09:01.174Z,2.27
2018-06-03T16:11:32.922Z,2.50
2018-06-03T16:14:04.955Z,1.70
2018-06-03T16:16:35.682Z,2.30
2018-06-03T16:19:08.729Z,2.20
2018-06-03T16:21:39.902Z,2.30
2018-06-03T16:24:11.579Z,2.00
2018-06-03T16:26:42.663Z,1.80
2018-06-03T16:29:13.849Z,1.97
2018-06-03T16:31:46.359Z,2.03
2018-06-03T16:34:19.371Z,2.07
2018-06-03T16:36:51.539Z,2.10
2018-06-03T16:39:22.372Z,2.00
2018-06-03T16:41:53.967Z,2.30
2018-06-03T16:44:26.082Z,2.53
2018-06-03T16:46:57.506Z,1.90
2018-06-03T16:49:29.055Z,2.07
2018-06-03T16:52:00.251Z,2.10
2018-06-03T16:54:37.475Z,2.20
2018-06-03T16:57:08.292Z,1.97
2018-06-03T17:02:18.826Z,2.20
2018-06-03T17:04:49.851Z,2.23
2018-06-03T17:07:20.906Z,2.10
2018-06-03T17:09:53.113Z,1.90
2018-06-03T17:15:00.582Z,2.03
2018-06-03T17:17:32.429Z,2.00
2018-06-03T17:20:03.219Z,1.70
2018-06-03T17:22:37.671Z,2.83
2018-06-03T17:25:08.482Z,1.83
2018-06-03T17:30:15.122Z,2.20
2018-06-03T17:32:46.335Z,2.40
2018-06-03T17:35:17.182Z,2.07
2018-06-03T17:37:48.068Z,2.27
2018-06-03T17:42:55.216Z,2.07
2018-06-03T17:45:26.179Z,2.10
2018-06-03T17:47:58.053Z,2.10
2018-06-03T17:50:29.096Z,2.40
2018-06-03T17:53:00.001Z,2.77
2018-06-03T17:55:30.781Z,2.93
2018-06-03T17:58:02.701Z,2.60
2018-06-03T18:00:33.534Z,2.63
2018-06-03T18:05:42.812Z,2.50
2018-06-03T18:08:14.815Z,2.07
2018-06-03T18:10:45.893Z,1.77
2018-06-03T18:13:16.471Z,1.87
2018-06-03T18:15:47.139Z,2.17
2018-06-03T18:18:18.053Z,2.17
2018-06-03T18:20:51.567Z,2.00
2018-06-03T18:23:22.486Z,2.07
2018-06-03T18:25:54.161Z,2.30
2018-06-03T18:28:25.096Z,2.57
2018-06-03T18:30:58.430Z,2.50
2018-06-03T18:33:29.257Z,2.20
2018-06-03T18:36:00.248Z,1.90
2018-06-03T18:38:31.297Z,2.27
2018-06-03T18:41:02.304Z,1.80
2018-06-03T18:43:33.061Z,2.03
2018-06-03T18:46:04.768Z,1.87
2018-06-03T18:48:35.717Z,2.20
2018-06-03T18:51:08.769Z,2.60
2018-06-03T18:53:39.709Z,2.40
2018-06-03T18:56:11.522Z,2.47
2018-06-03T18:58:42.212Z,2.53
2018-06-03T19:01:18.395Z,2.67
2018-06-03T19:03:49.234Z,1.77
2018-06-03T19:06:20.588Z,1.90
2018-06-03T19:08:51.702Z,2.13
2018-06-03T19:11:23.089Z,2.20
2018-06-03T19:13:54.380Z,2.47
2018-06-03T19:16:25.500Z,2.67
2018-06-03T19:18:57.752Z,2.43
2018-06-03T19:21:28.657Z,1.77
2018-06-03T19:23:59.581Z,2.40
2018-06-03T19:26:31.582Z,2.73
2018-06-03T19:29:09.340Z,2.47
2018-06-03T19:31:44.246Z,2.50
2018-06-03T19:34:15.655Z,1.67
2018-06-03T19:36:50.139Z,2.53
2018-06-03T19:39:21.166Z,2.10
2018-06-03T19:41:53.044Z,2.40
2018-06-03T19:44:23.886Z,1.90
2018-06-03T19:46:57.760Z,2.60
2018-06-03T19:49:28.567Z,1.90
2018-06-03T19:51:59.452Z,2.17
2018-06-03T19:54:30.517Z,2.27
2018-06-03T19:57:01.554Z,2.33
2018-06-03T19:59:32.501Z,2.10
2018-06-03T20:02:03.756Z,3.00
2018-06-03T20:04:34.865Z,2.30
2018-06-03T20:07:06.078Z,2.20
2018-06-03T20:09:37.101Z,1.73
2018-06-03T20:12:08.252Z,2.83
2018-06-03T20:14:42.427Z,2.13
2018-06-03T20:17:14.590Z,2.67
2018-06-03T20:19:45.644Z,2.23
2018-06-03T20:22:17.857Z,2.53
2018-06-03T20:24:48.930Z,2.77
2018-06-03T20:27:21.610Z,2.10
2018-06-03T20:29:52.475Z,1.87
2018-06-03T20:32:23.574Z,2.13
2018-06-03T20:34:54.577Z,2.70
2018-06-03T20:37:25.565Z,2.10
2018-06-03T20:39:56.993Z,3.03
2018-06-03T20:42:31.328Z,2.10
2018-06-03T20:45:02.627Z,1.90
2018-06-03T20:47:35.495Z,2.40
2018-06-03T20:50:07.070Z,1.80
2018-06-03T20:55:13.753Z,2.00
2018-06-03T20:57:45.797Z,2.40
2018-06-03T21:00:16.576Z,2.30
2018-06-03T21:02:47.562Z,2.33
2018-06-03T21:05:18.884Z,2.23
2018-06-03T21:07:49.989Z,1.80
2018-06-03T21:24:32.529Z,4.67
2018-06-03T21:27:03.509Z,4.37
2018-06-03T21:29:34.607Z,4.97
2018-06-03T21:32:05.815Z,5.17
2018-06-03T21:34:36.965Z,5.30
2018-06-03T21:37:07.993Z,6.73
2018-06-03T21:39:38.873Z,6.23
2018-06-03T21:42:09.776Z,7.50
2018-06-03T21:44:41.962Z,6.60
2018-06-03T21:47:12.930Z,6.87
2018-06-03T21:49:43.934Z,7.00
2018-06-03T21:52:14.904Z,7.30
2018-06-03T21:54:46.069Z,7.37
2018-06-03T21:57:16.912Z,7.60
2018-06-03T21:59:48.724Z,7.27
2018-06-03T22:02:19.753Z,7.37
2018-06-03T22:04:50.832Z,7.93
2018-06-03T22:07:21.503Z,7.67
2018-06-03T22:09:53.285Z,8.90
2018-06-03T22:12:24.087Z,8.13
2018-06-03T22:14:58.081Z,8.97
2018-06-03T22:17:29.758Z,9.07
2018-06-03T22:20:01.482Z,10.10
2018-06-03T22:22:32.403Z,9.60
2018-06-03T22:25:04.876Z,8.83
2018-06-03T22:27:35.772Z,9.67
2018-06-03T22:30:07.480Z,9.43
2018-06-03T22:32:38.595Z,10.77
2018-06-03T22:35:09.787Z,11.70
2018-06-03T22:37:40.676Z,10.07
2018-06-03T22:40:12.342Z,8.97
2018-06-03T22:42:43.146Z,9.50
2018-06-03T22:45:14.924Z,8.67
2018-06-03T22:47:45.785Z,10.40
2018-06-03T22:50:18.486Z,10.10
2018-06-03T22:52:49.489Z,11.60
2018-06-03T22:55:20.353Z,10.47
2018-06-03T22:57:52.838Z,10.70
2018-06-03T23:00:28.136Z,10.10
2018-06-03T23:03:04.059Z,10.40
2018-06-03T23:05:37.631Z,10.73
2018-06-03T23:08:08.667Z,11.50
2018-06-03T23:10:39.614Z,10.40
2018-06-03T23:13:10.535Z,10.33
2018-06-03T23:15:42.178Z,10.00
2018-06-03T23:18:13.238Z,10.93
2018-06-03T23:20:45.893Z,9.43
2018-06-03T23:23:16.749Z,9.23
2018-06-03T23:25:47.784Z,9.30
2018-06-03T23:28:18.497Z,8.90
2018-06-03T23:30:51.195Z,8.57
2018-06-03T23:33:22.150Z,7.47
2018-06-03T23:35:53.788Z,7.37
2018-06-03T23:38:25.413Z,7.47
2018-06-03T23:40:59.087Z,7.57
2018-06-03T23:43:30.027Z,7.63
2018-06-03T23:46:01.203Z,7.60
2018-06-03T23:48:32.250Z,8.70
2018-06-03T23:53:39.392Z,8.80
2018-06-03T23:56:10.426Z,8.97
2018-06-03T23:58:41.167Z,9.87
